This is the latest recevied weather packets stored in our database for station/object N6DZK. If no packets are shown the sender has not sent any weather packets the latest 10 day(s).
| Time | Temp. | Humidity | Pressure | Rain* | Wind** | Luminosity | Snow |
|---|---|---|---|---|---|---|---|
| 1777752489 | 20° C | 63% | 1014.2 hPa | 0 mm | - | 710 W/m² | - |
| 1777752184 | 20.56° C | 62% | 1014.3 hPa | 0 mm | - | 773 W/m² | - |
| 1777751883 | 20° C | 63% | 1014.2 hPa | 0 mm | - | 858 W/m² | - |
| 1777751579 | 20° C | 63% | 1014.2 hPa | 0 mm | - | 865 W/m² | - |
| 1777751275 | 19.44° C | 63% | 1014.3 hPa | 0 mm | - | 759 W/m² | - |
| 1777750973 | 18.89° C | 65% | 1014.3 hPa | 0 mm | - | 769 W/m² | - |
| 1777750668 | 19.44° C | 63% | 1014.5 hPa | 0 mm | - | 734 W/m² | - |
| 1777750366 | 19.44° C | 64% | 1014.6 hPa | 0 mm | - | 797 W/m² | - |
| 1777750066 | 19.44° C | 63% | 1014.7 hPa | 0 mm | - | 726 W/m² | - |
| 1777749764 | 18.89° C | 63% | 1014.6 hPa | 0 mm | - | 895 W/m² | - |
| 1777749460 | 18.89° C | 64% | 1014.7 hPa | 0 mm | - | 801 W/m² | - |
| 1777749159 | 18.33° C | 65% | 1014.7 hPa | 0 mm | - | 657 W/m² | - |
| 1777748855 | 19.44° C | 62% | 1014.7 hPa | 0 mm | - | 583 W/m² | - |
| 1777748553 | 19.44° C | 65% | 1014.5 hPa | 0 mm | - | 823 W/m² | - |
| 1777748253 | 18.89° C | 65% | 1014.6 hPa | 0 mm | - | 745 W/m² | - |
| 1777747949 | 18.89° C | 65% | 1014.7 hPa | 0 mm | - | 805 W/m² | - |
| 1777747646 | 18.89° C | 65% | 1014.6 hPa | 0 mm | - | 804 W/m² | - |
| 1777747341 | 18.89° C | 65% | 1014.8 hPa | 0 mm | - | 717 W/m² | - |
| 1777747038 | 18.33° C | 69% | 1014.8 hPa | 0 mm | - | 755 W/m² | - |
| 1777746734 | 17.78° C | 70% | 1014.9 hPa | 0 mm | - | 661 W/m² | - |
| 1777746430 | 17.78° C | 67% | 1014.9 hPa | 0 mm | - | 580 W/m² | - |
| 1777746125 | 17.78° C | 70% | 1015.1 hPa | 0 mm | - | 604 W/m² | - |
| 1777745823 | 17.22° C | 70% | 1014.8 hPa | 0 mm | - | 519 W/m² | - |
| 1777745522 | 17.22° C | 71% | 1014.8 hPa | 0 mm | - | 486 W/m² | - |
| 1777745218 | 16.67° C | 73% | 1015 hPa | 0 mm | - | 542 W/m² | - |
* Rain latest hour (hover to see other rain measurements)
** Current wind speed in m/s (hover to see current wind gust speed)